Briefing drone pour Portes-les-valence

Rechercher une autre localisation

Conditions de vol :


Nous sommes le : Dimanche 19 septembre 2021
Il est 01:40 UTC (03:40 LT)

Lever de soleil : 04:57 UTC (06:57 LT)
Coucher de soleil : 18:10 UTC (20:10 LT)

Météo

L'essentiel des conditions de vol

VIGILANCE MÉTÉO FRANCE - Drôme (26)
Vigilance Jaune : Orages
CARTE TEMSI
CARTES DES FRONTS
METAR de LFLU
LFLU 181800Z AUTO 32006KT CAVOK 22/15 Q1011

Date d'émission: 18/09/2021
Heure d'émission: 18:00 UTC
Vent: 320° pour 6 KT (11 km/h)
Visibilité horizontale: > 10 km
Plafond : Plafond et visibilité OK (CAVOK)
Température: 22 °C
Point de rosée: 15 °C
Humidité: 65%
Pression (QNH): 1011 hPa
Prévision 24h pour Valence (5 km)
Vent : 347° pour 1 KT (4 km/h)
Temperature Maxi: 14 °C
Temperature Min: 14 °C
Humidité : 86%
Condition : Nuageux



Warning: count(): Parameter must be an array or an object that implements Countable in /homepages/6/d509196549/htdocs/droneoxygene/briefing.php on line 743
WEBCAM POUR PORTES-LES-VALENCE

Réglementation

Voler en sécurité

CARTES AERONAUTIQUE 1/500.000
CARTES VAC (LFLU)
SUP AIP




Chargement des AIP...
NOTAM (PORTES-LES-VALENCE + Terrain à proximité / FIR )




Chargement des NOTAMS...
CONTACT PREFECTURE 26
Drôme (26) : ddt-satem@drome.gouv.fr


Avertissement : Les données mises à disposition sont indicatives. Oxygène Drone ne pourra être tenu responsable de dégâts causés aux biens et aux personnes.